Time;durP1;ratioP1;P1;durP2;ratioP2;P2;SDS_P1;SDS_P2;PMS_P1;PMS_P2;Temp;Humidity;BMP_temperature;BMP_pressure;BME280_temperature;BME280_humidity;BME280_pressure;Samples;Min_cycle;Max_cycle;Signal;HPM_P1;HPM_P2
2021/07/12 00:01:10;;;;;;;11.20;10.23;;;16.30;99.90;;;;;;5013267;28;20184;-65
2021/07/12 00:03:36;;;;;;;10.47;9.73;;;16.30;99.90;;;;;;5013472;28;20521;-65
2021/07/12 00:06:01;;;;;;;12.70;10.27;;;16.20;99.90;;;;;;5012943;28;20579;-65
2021/07/12 00:08:27;;;;;;;11.40;10.30;;;16.30;99.90;;;;;;5013471;28;20169;-65
2021/07/12 00:10:53;;;;;;;11.33;10.33;;;16.30;99.90;;;;;;5013059;28;20172;-65
2021/07/12 00:13:19;;;;;;;11.53;10.60;;;16.30;99.90;;;;;;5013414;28;20164;-65
2021/07/12 00:15:44;;;;;;;11.93;10.93;;;16.20;99.90;;;;;;5012922;28;20207;-65
2021/07/12 00:18:10;;;;;;;10.63;9.83;;;16.20;99.90;;;;;;5013141;28;20191;-65
2021/07/12 00:20:36;;;;;;;11.50;10.27;;;16.10;99.90;;;;;;5013098;28;20180;-65
2021/07/12 00:23:02;;;;;;;12.13;10.87;;;16.20;99.90;;;;;;5013294;28;20251;-65
2021/07/12 00:25:29;;;;;;;11.40;10.50;;;16.20;99.90;;;;;;5012871;28;20211;-65
2021/07/12 00:27:56;;;;;;;11.70;10.57;;;16.20;99.90;;;;;;5012924;28;20171;-65
2021/07/12 00:30:22;;;;;;;11.53;10.33;;;16.10;99.90;;;;;;5011716;28;20184;-65
2021/07/12 00:32:49;;;;;;;12.37;11.27;;;16.10;99.90;;;;;;5013290;28;20251;-67
2021/07/12 00:35:15;;;;;;;12.67;10.43;;;16.00;99.90;;;;;;5012725;28;20592;-67
2021/07/12 00:37:41;;;;;;;12.13;11.03;;;16.00;99.90;;;;;;5012699;28;20188;-67
2021/07/12 00:40:10;;;;;;;11.87;10.77;;;16.00;99.90;;;;;;5012606;28;20671;-67
2021/07/12 00:42:36;;;;;;;11.73;10.83;;;16.00;99.90;;;;;;5013042;28;20203;-67
2021/07/12 00:45:05;;;;;;;13.27;12.00;;;16.00;99.90;;;;;;5012593;28;20196;-67
2021/07/12 00:47:31;;;;;;;12.83;11.57;;;16.00;99.90;;;;;;5012430;28;20739;-67
2021/07/12 00:49:57;;;;;;;12.67;11.53;;;16.00;99.90;;;;;;5012916;28;20176;-67
2021/07/12 00:52:22;;;;;;;13.53;12.33;;;16.10;99.90;;;;;;5012530;28;20184;-67
2021/07/12 00:54:48;;;;;;;13.53;12.23;;;16.10;99.90;;;;;;5012819;28;20545;-67
2021/07/12 00:57:14;;;;;;;14.53;13.23;;;16.10;99.90;;;;;;5012115;28;20666;-67
2021/07/12 00:59:39;;;;;;;14.30;13.10;;;16.10;99.90;;;;;;5012580;28;20176;-67
2021/07/12 01:02:06;;;;;;;13.20;12.10;;;16.10;99.90;;;;;;5011007;28;20191;-65
2021/07/12 01:04:33;;;;;;;14.40;13.13;;;16.20;99.90;;;;;;5012415;28;20293;-67
2021/07/12 01:06:58;;;;;;;14.13;12.83;;;16.30;99.90;;;;;;5012076;28;20200;-67
2021/07/12 01:09:24;;;;;;;14.80;13.50;;;16.30;99.90;;;;;;5012640;28;20195;-67
2021/07/12 01:12:16;;;;;;;13.60;12.43;;;16.30;99.90;;;;;;5012205;28;20180;-67
2021/07/12 01:15:06;;;;;;;13.27;12.10;;;16.20;99.90;;;;;;5012466;28;20176;-67
2021/07/12 01:17:52;;;;;;;12.30;11.20;;;16.30;99.90;;;;;;5011787;28;20211;-67
2021/07/12 01:20:45;;;;;;;13.50;12.30;;;16.20;99.90;;;;;;4990952;28;20188;-67
2021/07/12 01:23:15;;;;;;;12.70;11.50;;;16.20;99.90;;;;;;4992625;28;20189;-67
2021/07/12 01:26:18;;;;;;;12.60;11.30;;;16.20;99.90;;;;;;4998857;28;20216;-67
2021/07/12 01:29:03;;;;;;;13.67;12.37;;;16.20;99.90;;;;;;5012220;28;20255;-67
2021/07/12 01:31:47;;;;;;;13.43;12.20;;;16.20;99.90;;;;;;5011015;28;20180;-67
2021/07/12 01:34:42;;;;;;;13.73;12.43;;;16.10;99.90;;;;;;5012018;28;20175;-67
2021/07/12 01:37:22;;;;;;;12.97;11.73;;;16.10;99.90;;;;;;4999355;28;20216;-67
2021/07/12 01:40:00;;;;;;;13.43;12.13;;;16.10;99.90;;;;;;4992593;28;20277;-67
2021/07/12 01:42:35;;;;;;;13.57;12.27;;;16.10;99.90;;;;;;5011421;28;20184;-67
2021/07/12 01:45:13;;;;;;;13.23;11.93;;;16.00;99.90;;;;;;5012004;28;20226;-67
2021/07/12 01:47:52;;;;;;;12.50;11.40;;;15.90;99.90;;;;;;4991381;28;20559;-67
2021/07/12 01:50:54;;;;;;;12.33;11.33;;;15.90;99.90;;;;;;4992109;28;20635;-68
2021/07/12 01:53:41;;;;;;;13.70;12.30;;;15.80;99.90;;;;;;5011993;28;20176;-67
2021/07/12 01:56:37;;;;;;;13.63;12.37;;;15.80;99.90;;;;;;5011456;28;20187;-67
2021/07/12 01:59:24;;;;;;;12.70;11.53;;;15.80;99.90;;;;;;5011230;28;20188;-67
2021/07/12 02:01:51;;;;;;;14.23;12.70;;;15.80;99.90;;;;;;5011982;28;20168;-67
2021/07/12 02:04:19;;;;;;;20.00;13.10;;;15.80;99.90;;;;;;5011380;28;20291;-67
2021/07/12 02:06:47;;;;;;;14.10;12.70;;;15.80;99.90;;;;;;5012150;28;20208;-69
2021/07/12 02:09:13;;;;;;;12.90;11.80;;;15.80;99.90;;;;;;5012907;28;20180;-69
2021/07/12 02:11:42;;;;;;;15.57;14.07;;;15.80;99.90;;;;;;5013490;28;20530;-71
2021/07/12 02:14:09;;;;;;;16.53;14.37;;;15.80;99.90;;;;;;5013038;28;20257;-71
2021/07/12 02:16:36;;;;;;;16.43;14.70;;;15.80;99.90;;;;;;5013087;28;20803;-70
2021/07/12 02:19:02;;;;;;;16.00;14.40;;;15.80;99.90;;;;;;5013425;28;20754;-72
2021/07/12 02:21:32;;;;;;;16.80;15.07;;;15.90;99.90;;;;;;5013149;28;20192;-70
2021/07/12 02:24:00;;;;;;;16.83;14.97;;;15.90;99.90;;;;;;5012809;28;20200;-69
2021/07/12 02:26:28;;;;;;;16.20;14.70;;;15.90;99.90;;;;;;5012231;28;20195;-70
2021/07/12 02:28:56;;;;;;;17.60;14.47;;;15.90;99.90;;;;;;5013255;28;20173;-71
2021/07/12 02:31:23;;;;;;;19.93;15.43;;;15.80;99.90;;;;;;5012500;28;20169;-71
2021/07/12 02:33:49;;;;;;;16.20;14.50;;;15.80;99.90;;;;;;5012859;28;20222;-69
2021/07/12 02:36:15;;;;;;;15.80;14.23;;;15.90;99.90;;;;;;5011317;28;20192;-69
2021/07/12 02:38:41;;;;;;;18.67;14.27;;;15.80;99.90;;;;;;5012801;28;20172;-71
2021/07/12 02:41:08;;;;;;;15.87;14.27;;;15.90;99.90;;;;;;5011814;28;20263;-68
2021/07/12 02:43:36;;;;;;;15.33;13.93;;;15.90;99.90;;;;;;5013092;28;20179;-69
2021/07/12 02:46:03;;;;;;;15.10;13.50;;;15.90;99.90;;;;;;5012389;28;20207;-71
2021/07/12 02:48:29;;;;;;;15.23;13.87;;;15.90;99.90;;;;;;5012628;28;20727;-70
2021/07/12 02:50:57;;;;;;;15.67;13.97;;;15.80;99.90;;;;;;5012644;28;20176;-71
2021/07/12 02:53:28;;;;;;;15.37;13.90;;;15.70;99.90;;;;;;5011546;28;20219;-70
2021/07/12 02:55:54;;;;;;;17.13;14.27;;;15.70;99.90;;;;;;5012179;28;20208;-69
2021/07/12 02:58:19;;;;;;;20.50;14.77;;;15.60;99.90;;;;;;5012857;28;20190;-69
2021/07/12 03:00:45;;;;;;;18.77;13.23;;;15.70;99.90;;;;;;5015077;28;20187;-71
2021/07/12 03:03:11;;;;;;;15.97;13.90;;;15.70;99.90;;;;;;5016022;28;20173;-69
2021/07/12 03:05:37;;;;;;;15.03;13.50;;;15.60;99.90;;;;;;5015490;28;20677;-71
2021/07/12 03:08:08;;;;;;;15.87;14.17;;;15.50;99.90;;;;;;5015724;28;20172;-69
2021/07/12 03:10:41;;;;;;;14.93;13.53;;;15.50;99.90;;;;;;5015665;28;20179;-69
2021/07/12 03:13:09;;;;;;;20.50;15.07;;;15.40;99.90;;;;;;5015911;28;20176;-71
2021/07/12 03:15:40;;;;;;;15.07;13.63;;;15.40;99.90;;;;;;5015326;28;20267;-71
2021/07/12 03:18:10;;;;;;;16.93;14.47;;;15.40;99.90;;;;;;5015593;28;20168;-70
2021/07/12 03:20:38;;;;;;;17.23;13.77;;;15.40;99.90;;;;;;5015982;28;20711;-69
2021/07/12 03:23:04;;;;;;;17.60;14.17;;;15.40;99.90;;;;;;5014740;28;20176;-73
2021/07/12 03:25:34;;;;;;;16.43;14.10;;;15.30;99.90;;;;;;5015318;28;20207;-73
2021/07/12 03:28:03;;;;;;;17.23;15.07;;;15.40;99.90;;;;;;5015569;28;20169;-70
2021/07/12 03:30:30;;;;;;;17.00;15.23;;;15.40;99.90;;;;;;5013368;28;20180;-68
2021/07/12 03:32:57;;;;;;;17.27;15.40;;;15.40;99.90;;;;;;5015883;28;20251;-69
2021/07/12 03:35:26;;;;;;;18.63;15.80;;;15.40;99.90;;;;;;5015617;28;20172;-72
2021/07/12 03:37:52;;;;;;;18.63;16.43;;;15.40;99.90;;;;;;5015162;28;20176;-71
2021/07/12 03:40:18;;;;;;;18.63;16.70;;;15.50;99.90;;;;;;5014087;28;20187;-70
2021/07/12 03:42:44;;;;;;;18.00;16.10;;;15.50;99.90;;;;;;5015534;28;20653;-69
2021/07/12 03:45:11;;;;;;;19.33;16.47;;;15.50;99.90;;;;;;5015600;28;20214;-71
2021/07/12 03:47:38;;;;;;;20.33;17.00;;;15.50;99.90;;;;;;5013817;28;20216;-70
2021/07/12 03:50:12;;;;;;;22.53;16.53;;;15.60;99.90;;;;;;5015716;28;20259;-67
2021/07/12 03:52:46;;;;;;;21.03;17.13;;;15.60;99.90;;;;;;5015225;28;20634;-67
2021/07/12 03:55:14;;;;;;;17.77;15.83;;;15.70;99.90;;;;;;4995007;28;20215;-66
2021/07/12 03:57:41;;;;;;;22.87;16.00;;;15.70;99.90;;;;;;5012253;28;20283;-65
2021/07/12 04:00:09;;;;;;;19.43;16.10;;;15.80;99.90;;;;;;5013538;28;20529;-65
2021/07/12 04:02:36;;;;;;;22.67;16.60;;;15.80;99.90;;;;;;5013722;28;20174;-65
2021/07/12 04:05:03;;;;;;;19.43;16.67;;;15.70;99.90;;;;;;5013337;28;20212;-65
2021/07/12 04:07:29;;;;;;;20.47;16.63;;;15.70;99.90;;;;;;5012467;28;20223;-66
2021/07/12 04:09:54;;;;;;;23.47;17.63;;;15.60;99.90;;;;;;5012878;28;20223;-65
2021/07/12 04:12:23;;;;;;;24.13;17.13;;;15.70;99.90;;;;;;5013303;28;20231;-66
2021/07/12 04:14:53;;;;;;;19.83;17.20;;;15.80;99.90;;;;;;5013224;28;20172;-66
2021/07/12 04:17:19;;;;;;;25.20;18.93;;;15.80;99.90;;;;;;5013061;28;20192;-66
2021/07/12 04:19:46;;;;;;;23.13;18.17;;;15.90;99.90;;;;;;5013147;28;20263;-65
2021/07/12 06:01:10;;;;;;;14.57;13.33;;;18.10;99.90;;;;;;5119109;27;20591;-65
2021/07/12 06:03:35;;;;;;;14.60;13.30;;;20.30;99.90;;;;;;5127543;27;20187;-66
2021/07/12 06:06:01;;;;;;;15.73;14.30;;;20.40;99.90;;;;;;5129300;28;20206;-66
2021/07/12 06:08:27;;;;;;;15.80;14.50;;;20.50;99.90;;;;;;5129193;28;20529;-65
2021/07/12 06:10:52;;;;;;;14.57;13.27;;;20.70;99.90;;;;;;5129132;27;20200;-65
2021/07/12 06:13:18;;;;;;;13.18;11.98;;;20.90;99.90;;;;;;5129584;28;20267;-65
2021/07/12 06:15:44;;;;;;;14.70;13.40;;;21.10;99.90;;;;;;5129556;28;20642;-66
2021/07/12 06:18:16;;;;;;;13.38;12.27;;;21.10;99.90;;;;;;5129028;27;20215;-66
2021/07/12 06:20:43;;;;;;;13.93;12.83;;;21.20;99.90;;;;;;5128776;27;20693;-67
2021/07/12 06:23:09;;;;;;;13.87;12.70;;;21.20;99.90;;;;;;5128999;27;20606;-67
2021/07/12 06:25:35;;;;;;;13.30;12.20;;;21.40;99.90;;;;;;5109006;28;20791;-67
2021/07/12 06:28:00;;;;;;;13.15;11.95;;;21.50;99.90;;;;;;5108485;28;20179;-67
2021/07/12 06:30:26;;;;;;;11.25;10.32;;;21.40;99.90;;;;;;5126760;28;20233;-68
2021/07/12 06:32:52;;;;;;;12.55;11.35;;;21.60;99.90;;;;;;5129179;28;20168;-67
2021/07/12 06:35:17;;;;;;;11.75;10.80;;;21.80;99.90;;;;;;5128592;27;20665;-67
2021/07/12 06:37:43;;;;;;;11.55;10.50;;;21.90;99.90;;;;;;5128872;28;20164;-66
2021/07/12 06:40:09;;;;;;;12.35;11.20;;;22.00;99.90;;;;;;5128075;28;20188;-68
2021/07/12 06:42:35;;;;;;;13.25;10.45;;;22.10;99.90;;;;;;5128554;27;20578;-67
2021/07/12 06:45:02;;;;;;;11.57;10.50;;;22.30;99.90;;;;;;5129030;27;20176;-68
2021/07/12 06:47:28;;;;;;;11.50;10.52;;;22.40;99.90;;;;;;5128769;27;20253;-67
2021/07/12 06:49:54;;;;;;;11.38;10.48;;;22.60;99.90;;;;;;5127975;27;20200;-67
2021/07/12 06:52:19;;;;;;;11.50;10.50;;;22.70;99.90;;;;;;5128536;28;20527;-67
2021/07/12 06:54:45;;;;;;;12.57;11.40;;;23.00;99.90;;;;;;5127595;27;20161;-67
2021/07/12 06:57:15;;;;;;;10.95;9.95;;;23.10;99.90;;;;;;5128389;28;20204;-67
2021/07/12 06:59:41;;;;;;;11.57;10.57;;;23.30;99.90;;;;;;5127970;27;20187;-67
2021/07/12 07:02:06;;;;;;;12.70;11.50;;;23.60;99.90;;;;;;5115059;27;20611;-67
2021/07/12 07:04:32;;;;;;;11.55;10.65;;;23.60;99.90;;;;;;5113867;28;20264;-67
2021/07/12 07:06:58;;;;;;;11.38;10.45;;;23.70;99.90;;;;;;5114458;28;20176;-67
2021/07/12 07:09:25;;;;;;;10.82;9.85;;;24.00;99.90;;;;;;5114585;28;20212;-67
2021/07/12 07:11:51;;;;;;;11.45;10.55;;;24.10;99.90;;;;;;5113899;28;20200;-67
2021/07/12 07:14:17;;;;;;;10.75;9.93;;;24.50;99.90;;;;;;5114451;28;20867;-67
2021/07/12 07:16:43;;;;;;;10.27;9.45;;;24.80;99.90;;;;;;5114244;28;20176;-67
2021/07/12 07:19:09;;;;;;;12.65;11.55;;;25.10;99.90;;;;;;5114352;28;20643;-67
2021/07/12 07:21:35;;;;;;;10.77;9.98;;;25.50;99.90;;;;;;5113822;28;20208;-67
2021/07/12 07:24:01;;;;;;;10.95;10.05;;;26.00;99.90;;;;;;5113758;28;20173;-67
2021/07/12 07:26:27;;;;;;;9.93;8.98;;;26.10;99.90;;;;;;5114055;28;20172;-67
2021/07/12 07:28:55;;;;;;;9.40;8.65;;;26.30;99.90;;;;;;5114540;28;20702;-66
2021/07/12 07:31:21;;;;;;;9.95;9.13;;;26.10;99.90;;;;;;5113733;28;20209;-67
2021/07/12 07:33:47;;;;;;;9.43;8.73;;;26.40;99.90;;;;;;5113546;28;20533;-66
2021/07/12 07:36:13;;;;;;;8.90;8.20;;;26.60;99.90;;;;;;5114263;28;20178;-67
2021/07/12 07:38:39;;;;;;;8.68;8.00;;;26.80;99.90;;;;;;5113875;28;20399;-67
2021/07/12 07:41:04;;;;;;;9.90;9.20;;;27.10;99.90;;;;;;5112525;28;20192;-67
2021/07/12 07:43:30;;;;;;;9.23;8.63;;;27.10;99.90;;;;;;5113891;28;20218;-67
2021/07/12 07:45:55;;;;;;;9.27;8.57;;;27.10;99.90;;;;;;5113783;28;20293;-67
2021/07/12 07:48:21;;;;;;;8.73;8.02;;;26.90;99.90;;;;;;5113601;28;21029;-67
2021/07/12 07:50:47;;;;;;;8.85;8.25;;;26.70;99.90;;;;;;5113353;28;20193;-68
2021/07/12 07:53:12;;;;;;;9.50;8.60;;;26.90;99.90;;;;;;5113867;28;20607;-68
2021/07/12 07:55:40;;;;;;;8.73;8.13;;;27.20;99.90;;;;;;5114057;28;20244;-67
2021/07/12 07:58:05;;;;;;;9.27;8.63;;;27.40;99.90;;;;;;5113316;28;20185;-68
2021/07/12 08:00:31;;;;;;;8.68;8.02;;;27.70;99.90;;;;;;5113564;28;20254;-68
2021/07/12 08:02:57;;;;;;;9.43;8.65;;;27.80;99.90;;;;;;5113607;28;20181;-67
2021/07/12 08:05:23;;;;;;;8.73;8.02;;;27.90;99.90;;;;;;5113489;28;20284;-68
2021/07/12 08:07:49;;;;;;;9.93;9.23;;;28.00;99.90;;;;;;5112842;28;20198;-67
2021/07/12 08:10:17;;;;;;;8.43;7.90;;;28.10;99.90;;;;;;5112649;28;20200;-67
2021/07/12 08:12:43;;;;;;;9.05;8.35;;;28.10;99.90;;;;;;5112379;28;20176;-68
2021/07/12 08:15:11;;;;;;;7.82;7.30;;;28.50;99.90;;;;;;5113302;28;20161;-67
2021/07/12 08:17:37;;;;;;;7.75;7.22;;;28.80;99.90;;;;;;5113020;28;20173;-67
2021/07/12 08:20:05;;;;;;;7.63;7.13;;;28.80;99.90;;;;;;5112278;28;20301;-67
2021/07/12 08:22:33;;;;;;;8.02;7.55;;;28.80;99.90;;;;;;5112828;28;20191;-67
2021/07/12 08:25:00;;;;;;;8.68;8.07;;;28.80;99.90;;;;;;5113343;28;20685;-66
2021/07/12 08:27:25;;;;;;;9.52;8.82;;;28.20;99.90;;;;;;5113147;28;20173;-67
2021/07/12 08:29:51;;;;;;;8.02;7.43;;;28.30;99.90;;;;;;5112882;28;20563;-66
2021/07/12 08:32:17;;;;;;;7.43;6.82;;;28.70;99.90;;;;;;5112510;28;20196;-65
2021/07/12 08:34:42;;;;;;;7.35;6.78;;;28.80;99.90;;;;;;5112846;28;20176;-67
2021/07/12 08:37:09;;;;;;;6.97;6.47;;;28.90;99.90;;;;;;5112033;28;20539;-66
2021/07/12 08:39:35;;;;;;;7.85;7.32;;;29.00;99.90;;;;;;5112117;28;20273;-66
2021/07/12 08:42:01;;;;;;;7.57;7.07;;;28.90;99.90;;;;;;5112358;28;20287;-66
2021/07/12 08:44:27;;;;;;;7.78;7.05;;;29.20;99.90;;;;;;5112669;28;20264;-66
2021/07/12 08:46:53;;;;;;;7.60;7.10;;;29.60;99.90;;;;;;5112851;28;20184;-66
2021/07/12 08:49:19;;;;;;;7.50;6.68;;;30.00;99.90;;;;;;5112327;28;20205;-66
2021/07/12 08:51:45;;;;;;;7.45;6.95;;;29.90;99.90;;;;;;5110696;28;20279;-67
2021/07/12 08:54:10;;;;;;;8.00;7.40;;;29.80;99.90;;;;;;5113370;28;20175;-68
2021/07/12 08:56:37;;;;;;;7.43;6.90;;;29.80;99.90;;;;;;5113625;28;20280;-67
2021/07/12 08:59:25;;;;;;;6.95;6.45;;;29.40;99.90;;;;;;5112738;28;20192;-68
2021/07/12 09:02:05;;;;;;;6.60;6.20;;;29.10;99.90;;;;;;5112650;28;20200;-66
2021/07/12 09:04:31;;;;;;;6.38;5.88;;;29.10;99.90;;;;;;5113014;28;20184;-67
2021/07/12 09:07:02;;;;;;;6.93;5.88;;;29.50;99.90;;;;;;5112408;28;20541;-67
2021/07/12 09:09:28;;;;;;;6.03;5.70;;;29.80;99.90;;;;;;5112508;28;20200;-66
2021/07/12 09:11:54;;;;;;;6.63;6.07;;;30.10;99.90;;;;;;5111776;28;20261;-67
2021/07/12 09:14:20;;;;;;;7.07;6.57;;;30.00;99.90;;;;;;5112614;28;20172;-67
2021/07/12 09:16:47;;;;;;;6.53;6.13;;;30.00;99.90;;;;;;5112263;28;20175;-66
2021/07/12 09:19:16;;;;;;;6.18;5.78;;;30.20;99.90;;;;;;5111927;28;20199;-68
2021/07/12 09:22:01;;;;;;;6.65;6.20;;;30.50;99.90;;;;;;5111947;28;20256;-68
2021/07/12 09:24:30;;;;;;;5.53;5.13;;;30.80;99.90;;;;;;5112224;28;20309;-67
2021/07/12 09:27:05;;;;;;;6.00;5.47;;;30.60;99.90;;;;;;5111902;28;20185;-66
2021/07/12 09:29:36;;;;;;;5.55;5.25;;;30.40;99.90;;;;;;5111717;28;20192;-66
2021/07/12 09:32:05;;;;;;;5.47;5.18;;;30.20;99.90;;;;;;5111671;28;20208;-66
2021/07/12 09:34:31;;;;;;;6.53;5.93;;;30.50;99.90;;;;;;5112019;28;20526;-66
2021/07/12 09:36:56;;;;;;;5.75;5.45;;;30.30;99.90;;;;;;5111849;28;20180;-67
2021/07/12 09:39:33;;;;;;;5.13;4.82;;;30.20;99.90;;;;;;5111918;28;20225;-66
2021/07/12 09:42:03;;;;;;;6.10;5.55;;;30.30;99.90;;;;;;5110590;28;20275;-66
2021/07/12 09:44:29;;;;;;;5.45;5.15;;;30.30;99.90;;;;;;5112087;28;20168;-66
2021/07/12 09:47:02;;;;;;;5.90;5.60;;;30.60;99.90;;;;;;5111620;28;20176;-67
2021/07/12 09:49:27;;;;;;;8.13;7.63;;;30.30;99.90;;;;;;5111828;28;20299;-67
2021/07/12 09:51:58;;;;;;;5.63;5.32;;;29.60;99.90;;;;;;5111345;28;20323;-67
2021/07/12 09:54:25;;;;;;;5.32;5.03;;;29.50;99.90;;;;;;5111530;28;20169;-67
2021/07/12 09:56:55;;;;;;;6.75;6.43;;;29.50;99.90;;;;;;5111660;28;20230;-66
2021/07/12 09:59:22;;;;;;;5.40;5.00;;;29.30;99.90;;;;;;5110191;28;20177;-68
2021/07/12 10:01:52;;;;;;;6.03;5.72;;;29.80;99.90;;;;;;5111188;28;20196;-67
2021/07/12 10:04:19;;;;;;;6.38;5.97;;;30.30;99.90;;;;;;5111229;28;20206;-68
2021/07/12 10:06:47;;;;;;;5.78;5.38;;;30.60;99.90;;;;;;5111181;28;20177;-66
2021/07/12 10:09:14;;;;;;;5.13;4.80;;;30.80;99.90;;;;;;5111384;28;20192;-67
2021/07/12 10:11:42;;;;;;;7.32;6.82;;;30.80;99.90;;;;;;5111398;28;20570;-66
2021/07/12 10:14:10;;;;;;;6.18;5.88;;;30.90;99.90;;;;;;5111319;28;20173;-68
2021/07/12 10:16:37;;;;;;;7.45;7.05;;;30.90;99.90;;;;;;5111187;28;20195;-67
2021/07/12 10:19:03;;;;;;;5.80;5.50;;;31.00;99.90;;;;;;5111593;28;20175;-67
2021/07/12 10:21:38;;;;;;;5.60;5.30;;;30.70;99.90;;;;;;5111190;28;20564;-66
2021/07/12 10:24:05;;;;;;;6.15;5.65;;;30.80;99.90;;;;;;5111608;28;20685;-67
2021/07/12 10:26:44;;;;;;;5.00;4.70;;;30.70;99.90;;;;;;5111480;28;20181;-66
2021/07/12 10:29:21;;;;;;;5.78;5.47;;;30.40;99.90;;;;;;5109976;28;20196;-66
2021/07/12 10:32:01;;;;;;;5.43;5.03;;;29.90;99.90;;;;;;5111013;28;20200;-65
2021/07/12 10:34:37;;;;;;;5.43;5.13;;;29.80;99.90;;;;;;5110776;28;20639;-65
2021/07/12 10:37:15;;;;;;;5.65;5.32;;;29.90;99.90;;;;;;5114122;28;20229;-66
2021/07/12 10:40:18;;;;;;;5.40;5.10;;;30.80;99.90;;;;;;5114268;28;20180;-66
2021/07/12 10:42:44;;;;;;;5.35;5.05;;;31.40;99.90;;;;;;5114084;28;20180;-66
2021/07/12 10:45:27;;;;;;;6.47;6.07;;;31.60;99.90;;;;;;5115139;28;20176;-67
2021/07/12 10:47:56;;;;;;;5.38;5.07;;;31.60;99.90;;;;;;5114659;28;20173;-67
2021/07/12 10:50:33;;;;;;;7.43;6.93;;;31.20;99.90;;;;;;5114499;28;20216;-67
2021/07/12 10:53:26;;;;;;;5.10;4.80;;;30.70;99.90;;;;;;5114901;27;20169;-66
2021/07/12 10:55:58;;;;;;;5.65;5.25;;;30.50;99.90;;;;;;5084890;28;20196;-68
2021/07/12 10:58:27;;;;;;;5.18;4.88;;;30.70;99.90;;;;;;5114809;28;20177;-67
2021/07/12 11:00:57;;;;;;;5.90;5.60;;;30.90;99.90;;;;;;5114291;28;20288;-67
2021/07/12 11:03:41;;;;;;;5.68;5.38;;;31.00;99.90;;;;;;5114979;28;20188;-66
2021/07/12 11:06:09;;;;;;;5.18;4.88;;;30.80;99.90;;;;;;5094505;28;20170;-66
2021/07/12 11:08:44;;;;;;;5.47;5.18;;;30.60;99.90;;;;;;5094628;28;20181;-67
2021/07/12 11:11:11;;;;;;;5.35;5.05;;;30.50;99.90;;;;;;5103929;28;20196;-66
2021/07/12 11:14:00;;;;;;;5.40;5.05;;;30.60;99.90;;;;;;5114710;28;20169;-66
2021/07/12 11:16:36;;;;;;;5.07;4.78;;;30.70;99.90;;;;;;5114642;28;20181;-67
2021/07/12 11:19:28;;;;;;;5.72;5.43;;;30.70;99.90;;;;;;5114546;28;20460;-67
2021/07/12 11:22:14;;;;;;;5.95;5.55;;;30.50;99.90;;;;;;5111113;28;20192;-67
2021/07/12 11:25:11;;;;;;;5.47;5.18;;;30.30;99.90;;;;;;5114337;28;20259;-68
2021/07/12 11:27:37;;;;;;;6.30;6.00;;;30.10;99.90;;;;;;5114570;28;20173;-67
2021/07/12 11:30:43;;;;;;;5.72;5.35;;;29.80;99.90;;;;;;5113456;28;20193;-67
2021/07/12 11:33:09;;;;;;;4.80;4.50;;;29.60;99.90;;;;;;5051291;28;20676;-67
2021/07/12 11:35:35;;;;;;;4.95;4.65;;;29.60;99.90;;;;;;5045966;28;20179;-67
2021/07/12 11:38:04;;;;;;;5.53;5.22;;;29.80;99.90;;;;;;5061312;28;20235;-66
2021/07/12 11:40:30;;;;;;;5.90;5.60;;;29.70;99.90;;;;;;5109082;28;20237;-67
2021/07/12 11:42:56;;;;;;;5.50;5.10;;;29.50;99.90;;;;;;5113619;28;20173;-66
2021/07/12 11:45:25;;;;;;;5.22;4.93;;;29.40;99.90;;;;;;5114184;28;20685;-67
2021/07/12 11:47:55;;;;;;;5.38;5.07;;;29.40;99.90;;;;;;5113364;28;20517;-68
2021/07/12 11:50:27;;;;;;;5.55;5.25;;;29.40;99.90;;;;;;5113559;28;20287;-66
2021/07/12 11:52:55;;;;;;;5.72;5.40;;;29.20;99.90;;;;;;5113673;28;20195;-67
2021/07/12 11:55:28;;;;;;;5.18;4.85;;;29.20;99.90;;;;;;5113577;28;20171;-67
2021/07/12 11:57:59;;;;;;;5.57;5.18;;;29.40;99.90;;;;;;5113144;28;20669;-67
2021/07/12 12:00:27;;;;;;;5.22;4.93;;;29.40;99.90;;;;;;5113392;28;20572;-67
2021/07/12 12:02:56;;;;;;;5.30;5.00;;;29.30;99.90;;;;;;5113146;28;20173;-67
2021/07/12 12:05:22;;;;;;;6.13;5.72;;;29.10;99.90;;;;;;5114120;27;20259;-67
2021/07/12 12:07:48;;;;;;;4.82;4.53;;;29.00;99.90;;;;;;5113747;28;20215;-67
2021/07/12 12:10:26;;;;;;;5.68;5.28;;;28.90;99.90;;;;;;5113391;28;20891;-68
2021/07/12 12:12:57;;;;;;;5.28;4.97;;;29.00;99.90;;;;;;5121911;22;20222;-66
2021/07/12 12:15:36;;;;;;;5.90;5.50;;;29.10;99.90;;;;;;5051174;28;20166;-66
2021/07/12 12:18:10;;;;;;;7.47;7.03;;;28.90;99.90;;;;;;5052157;28;20197;-66
2021/07/12 12:20:39;;;;;;;6.95;6.57;;;28.80;99.90;;;;;;5051836;28;20190;-66
2021/07/12 12:23:16;;;;;;;5.82;5.53;;;28.80;99.90;;;;;;5037901;28;20199;-66
2021/07/12 12:26:00;;;;;;;7.60;5.13;;;28.80;99.90;;;;;;5032842;28;20171;-66
2021/07/12 12:28:33;;;;;;;5.70;5.40;;;29.00;99.90;;;;;;5032622;28;20175;-66
2021/07/12 12:31:04;;;;;;;5.60;5.20;;;29.20;99.90;;;;;;5031952;28;20179;-66
2021/07/12 12:33:33;;;;;;;5.43;4.82;;;29.20;99.90;;;;;;5032558;28;20195;-66
2021/07/12 12:36:10;;;;;;;6.60;6.20;;;29.20;99.90;;;;;;5032519;28;20226;-66
2021/07/12 12:38:37;;;;;;;5.93;5.63;;;29.20;99.90;;;;;;5032645;28;20581;-66
2021/07/12 12:41:09;;;;;;;5.32;5.03;;;29.20;99.90;;;;;;5032024;28;20193;-66
2021/07/12 12:43:36;;;;;;;5.03;4.72;;;29.40;99.90;;;;;;5032043;28;20199;-66
2021/07/12 12:46:04;;;;;;;5.05;4.75;;;29.50;99.90;;;;;;5032003;28;20642;-66
2021/07/12 12:48:32;;;;;;;5.45;5.07;;;29.80;99.90;;;;;;5032300;28;20940;-66
2021/07/12 12:50:58;;;;;;;5.35;5.05;;;29.70;99.90;;;;;;5031846;28;20266;-66
2021/07/12 12:53:31;;;;;;;5.32;5.05;;;29.50;99.90;;;;;;5031737;28;20702;-66
2021/07/12 12:55:57;;;;;;;5.70;5.40;;;29.40;99.90;;;;;;5031149;28;20226;-66
2021/07/12 12:58:26;;;;;;;5.68;5.38;;;29.20;99.90;;;;;;5030624;28;20176;-66
2021/07/12 13:00:53;;;;;;;5.13;4.82;;;29.00;99.90;;;;;;5031487;28;20252;-66
2021/07/12 13:03:19;;;;;;;6.75;6.30;;;28.70;99.90;;;;;;5031805;28;20233;-66
2021/07/12 13:06:00;;;;;;;6.20;5.80;;;28.50;99.90;;;;;;5031778;28;20591;-66
2021/07/12 13:08:25;;;;;;;6.18;5.88;;;28.10;99.90;;;;;;5012106;28;20180;-66
2021/07/12 13:11:01;;;;;;;6.43;6.03;;;27.90;99.90;;;;;;5012679;28;20180;-66
2021/07/12 13:13:28;;;;;;;5.60;5.30;;;27.80;99.90;;;;;;5031720;28;20206;-66
2021/07/12 13:16:10;;;;;;;6.55;6.25;;;27.80;99.90;;;;;;5031618;28;20225;-66
2021/07/12 13:18:35;;;;;;;5.90;5.43;;;27.90;99.90;;;;;;5031474;28;20187;-66
2021/07/12 13:21:01;;;;;;;6.20;5.80;;;27.80;99.90;;;;;;5030558;28;20175;-66
2021/07/12 13:23:28;;;;;;;7.25;6.35;;;27.80;99.90;;;;;;5031477;28;20318;-66
2021/07/12 13:26:08;;;;;;;6.60;6.20;;;27.70;99.90;;;;;;5031622;28;20175;-66
2021/07/12 13:28:34;;;;;;;6.55;6.15;;;27.80;99.90;;;;;;5031530;28;20508;-66
2021/07/12 13:31:00;;;;;;;7.40;6.95;;;27.90;99.90;;;;;;5031194;28;20167;-66
2021/07/12 13:33:28;;;;;;;6.63;6.22;;;27.90;99.90;;;;;;5031165;28;20205;-65
2021/07/12 13:35:54;;;;;;;7.18;6.78;;;27.90;99.90;;;;;;5031564;28;20171;-66
2021/07/12 13:38:20;;;;;;;6.50;6.00;;;28.10;99.90;;;;;;5031108;28;20262;-66
2021/07/12 13:40:46;;;;;;;6.40;5.72;;;28.20;99.90;;;;;;5031013;28;20629;-66
2021/07/12 13:43:13;;;;;;;5.90;5.57;;;28.30;99.90;;;;;;5031117;28;21666;-66
2021/07/12 13:45:39;;;;;;;5.90;5.60;;;28.40;99.90;;;;;;5031526;28;20638;-66
2021/07/12 13:48:06;;;;;;;6.43;6.03;;;28.40;99.90;;;;;;5030917;28;20681;-66
2021/07/12 13:50:32;;;;;;;6.55;6.18;;;28.60;99.90;;;;;;5030927;28;20171;-66
2021/07/12 13:53:00;;;;;;;6.53;6.18;;;28.80;99.90;;;;;;5031032;28;20294;-66
2021/07/12 13:55:28;;;;;;;5.35;5.05;;;29.00;99.90;;;;;;5031036;28;20184;-66
2021/07/12 13:57:56;;;;;;;6.47;6.07;;;29.40;99.90;;;;;;5031065;28;20259;-66
2021/07/12 14:00:24;;;;;;;4.57;4.38;;;29.80;99.90;;;;;;5030184;28;20543;-66
2021/07/12 14:02:50;;;;;;;5.47;5.18;;;30.20;99.90;;;;;;5031358;28;20222;-66
2021/07/12 14:05:17;;;;;;;5.07;4.80;;;30.90;99.90;;;;;;5030956;28;20203;-66
2021/07/12 14:07:44;;;;;;;5.50;5.05;;;31.40;99.90;;;;;;5031398;28;20171;-66
2021/07/12 14:10:12;;;;;;;5.65;5.25;;;31.50;99.90;;;;;;5030731;28;20182;-66
2021/07/12 14:12:39;;;;;;;4.80;4.50;;;31.40;99.90;;;;;;5034914;28;20260;-66
2021/07/12 14:15:16;;;;;;;4.80;4.50;;;31.00;99.90;;;;;;5035135;28;20711;-66
2021/07/12 14:17:43;;;;;;;5.85;5.45;;;30.40;99.90;;;;;;5034997;28;20245;-66
2021/07/12 14:20:09;;;;;;;6.38;5.90;;;30.00;99.90;;;;;;5034677;28;20282;-66
2021/07/12 14:22:36;;;;;;;5.30;5.00;;;29.60;99.90;;;;;;5034627;28;20235;-66
2021/07/12 14:25:02;;;;;;;6.80;5.40;;;29.30;99.90;;;;;;5035006;28;20182;-66
2021/07/12 14:27:28;;;;;;;5.47;5.18;;;28.90;99.90;;;;;;5034708;28;20241;-66
2021/07/12 14:29:53;;;;;;;5.90;5.55;;;28.70;99.90;;;;;;5034724;28;20207;-66